Clinchburg, Virginia
Current Conditions -  °F | °C
As of 2:35 PM on Friday 28 Nov 2014 (Local Time) from KVJI Reporting Station
Scattered Clouds Scattered Clouds  
Wind Chill: 27°   Ceiling: Unl
Heat Index: 35°   Visibility: 10mi
Dew Point: 22°   Wind: 9mph
Humidity: 61%   Direction: 250°WSW
Pressure: 30.26"   Gusts: 16mph
Location:  36.7675°N, 81.854°W
Report Text: KVJI 281935Z AUTO 25008G14KT 10SM SCT027 02/M05 A3026 RMK AO2 T00151053
Loading
Personal Weather Stations






























Interactive Weather Map New forecast layout! Learn more

10-Day Weather Forecast

Advertisements
Track Severe Weather on mobile